createdAt,value
2022-09-26T00:00:00.963Z,92.2
2022-09-26T00:01:01.175Z,92.2
2022-09-26T00:02:01.272Z,92.2
2022-09-26T00:03:00.387Z,92.2
2022-09-26T00:04:00.540Z,92.2
2022-09-26T00:05:00.693Z,92.2
2022-09-26T00:06:00.863Z,92.2
2022-09-26T00:07:00.980Z,92.2
2022-09-26T00:08:01.133Z,92.2
2022-09-26T00:09:00.282Z,92.2
2022-09-26T00:10:00.426Z,92.2
2022-09-26T00:11:00.621Z,92.2
2022-09-26T00:12:00.717Z,92.2
2022-09-26T00:13:00.863Z,92.1
2022-09-26T00:14:01.006Z,92
2022-09-26T00:15:01.155Z,92
2022-09-26T00:16:00.319Z,92
2022-09-26T00:17:00.493Z,92
2022-09-26T00:18:00.595Z,92
2022-09-26T00:19:00.742Z,92
2022-09-26T00:20:00.888Z,92.1
2022-09-26T00:21:01.067Z,92.1
2022-09-26T00:22:01.185Z,92.1
2022-09-26T00:23:00.333Z,92.2
2022-09-26T00:24:00.498Z,92.2
2022-09-26T00:25:00.644Z,92.2
2022-09-26T00:26:00.797Z,92.2
2022-09-26T00:27:00.947Z,92.2
2022-09-26T00:28:01.076Z,92.2
2022-09-26T00:29:01.230Z,92.1
2022-09-26T00:30:00.373Z,92.2
2022-09-26T00:31:00.591Z,92.2
2022-09-26T00:32:00.694Z,92.2
2022-09-26T00:33:00.820Z,92.2
2022-09-26T00:34:00.951Z,92.3
2022-09-26T00:35:01.099Z,92.3
2022-09-26T00:36:01.243Z,92.3
2022-09-26T00:37:00.398Z,92.3
2022-09-26T00:38:00.541Z,92.3
2022-09-26T00:39:00.685Z,92.3
2022-09-26T00:40:00.826Z,92.3
2022-09-26T00:41:01.026Z,92.3
2022-09-26T00:42:01.136Z,92.3
2022-09-26T00:43:00.269Z,92.3
2022-09-26T00:44:00.410Z,92.3
2022-09-26T00:45:00.555Z,92.3
2022-09-26T00:46:00.769Z,92.3
2022-09-26T00:47:00.874Z,92.3
2022-09-26T00:48:01.018Z,92.3
2022-09-26T00:49:01.155Z,92.3
2022-09-26T00:50:00.303Z,92.4
2022-09-26T00:51:00.471Z,92.4
2022-09-26T00:52:00.631Z,92.4
2022-09-26T00:53:00.758Z,92.4
2022-09-26T00:54:00.906Z,92.4
2022-09-26T00:55:01.058Z,92.4
2022-09-26T00:56:01.209Z,92.4
2022-09-26T00:57:00.389Z,92.4
2022-09-26T00:58:00.510Z,92.4
2022-09-26T00:59:00.665Z,92.3
2022-09-26T01:00:00.812Z,92.4
2022-09-26T01:01:01.133Z,92.4
2022-09-26T01:02:01.241Z,92.3
2022-09-26T01:03:00.256Z,92.3
2022-09-26T01:04:00.410Z,92.3
2022-09-26T01:05:00.568Z,92.3
2022-09-26T01:06:00.697Z,92.3
2022-09-26T01:07:00.857Z,92.3
2022-09-26T01:08:01.005Z,92.4
2022-09-26T01:09:01.146Z,92.4
2022-09-26T01:10:00.307Z,92.4
2022-09-26T01:11:00.446Z,92.5
2022-09-26T01:12:00.587Z,92.5
2022-09-26T01:13:00.743Z,92.5
2022-09-26T01:14:00.885Z,92.5
2022-09-26T01:15:01.060Z,92.5
2022-09-26T01:16:01.184Z,92.5
2022-09-26T01:17:00.393Z,92.5
2022-09-26T01:18:00.463Z,92.5
2022-09-26T01:19:00.611Z,92.5
2022-09-26T01:20:00.797Z,92.5
2022-09-26T01:21:00.919Z,92.6
2022-09-26T01:22:01.080Z,92.6
2022-09-26T01:23:01.226Z,92.6
2022-09-26T01:24:00.377Z,92.6
2022-09-26T01:25:00.550Z,92.6
2022-09-26T01:26:00.714Z,92.6
2022-09-26T01:27:00.830Z,92.6
2022-09-26T01:28:00.980Z,92.6
2022-09-26T01:29:01.137Z,92.6
2022-09-26T01:30:00.284Z,92.6
2022-09-26T01:31:00.546Z,92.6
2022-09-26T01:32:00.571Z,92.6
2022-09-26T01:33:00.731Z,92.6
2022-09-26T01:34:00.867Z,92.6
2022-09-26T01:35:01.011Z,92.6
2022-09-26T01:36:01.182Z,92.6
2022-09-26T01:37:00.301Z,92.6
2022-09-26T01:38:00.448Z,92.6
2022-09-26T01:39:00.600Z,92.6
2022-09-26T01:40:00.753Z,92.7
2022-09-26T01:41:01.002Z,92.7
2022-09-26T01:42:01.045Z,92.7
2022-09-26T01:43:01.203Z,92.6
2022-09-26T01:44:00.367Z,92.6
2022-09-26T01:45:00.498Z,92.6
2022-09-26T01:46:00.721Z,92.6
2022-09-26T01:47:00.795Z,92.6
2022-09-26T01:48:00.934Z,92.7
2022-09-26T01:49:01.090Z,92.6
2022-09-26T01:50:01.234Z,92.6
2022-09-26T01:51:00.395Z,92.7
2022-09-26T01:52:00.541Z,92.7
2022-09-26T01:53:00.680Z,92.7
2022-09-26T01:54:00.824Z,92.7
2022-09-26T01:55:00.986Z,92.6
2022-09-26T01:56:01.163Z,92.6
2022-09-26T01:57:00.288Z,92.7
2022-09-26T01:58:00.432Z,92.7
2022-09-26T01:59:00.568Z,92.7
2022-09-26T02:00:00.724Z,92.7
2022-09-26T02:01:00.950Z,92.8
2022-09-26T02:02:01.065Z,92.8
2022-09-26T02:03:01.153Z,92.8
2022-09-26T02:04:00.300Z,92.8
2022-09-26T02:05:00.418Z,92.8
2022-09-26T02:06:00.593Z,92.8
2022-09-26T02:07:00.746Z,92.8
2022-09-26T02:08:00.871Z,92.8
2022-09-26T02:09:01.024Z,92.8
2022-09-26T02:10:01.174Z,92.9
2022-09-26T02:11:00.330Z,92.9
2022-09-26T02:12:00.484Z,92.9
2022-09-26T02:13:00.622Z,92.9
2022-09-26T02:14:00.768Z,93
2022-09-26T02:15:00.914Z,93
2022-09-26T02:16:01.070Z,93.1
2022-09-26T02:17:01.317Z,93.1
2022-09-26T02:18:00.352Z,93.2
2022-09-26T02:19:00.507Z,93.2
2022-09-26T02:20:00.658Z,93.3
2022-09-26T02:21:00.794Z,93.3
2022-09-26T02:22:00.973Z,93.3
2022-09-26T02:23:01.089Z,93.3
2022-09-26T02:24:01.234Z,93.4
2022-09-26T02:25:00.376Z,93.4
2022-09-26T02:26:00.527Z,93.4
2022-09-26T02:27:00.696Z,93.4
2022-09-26T02:28:00.820Z,93.4
2022-09-26T02:29:00.971Z,93.5
2022-09-26T02:30:01.124Z,93.5
2022-09-26T02:31:00.272Z,93.5
2022-09-26T02:32:00.466Z,93.5
2022-09-26T02:33:00.562Z,93.5
2022-09-26T02:34:00.713Z,93.6
2022-09-26T02:35:00.862Z,93.6
2022-09-26T02:36:01.027Z,93.6
2022-09-26T02:37:01.266Z,93.6
2022-09-26T02:38:00.318Z,93.6
2022-09-26T02:39:00.472Z,93.6
2022-09-26T02:40:00.623Z,93.6
2022-09-26T02:41:00.847Z,93.6
2022-09-26T02:42:00.911Z,93.7
2022-09-26T02:43:01.081Z,93.7
2022-09-26T02:44:01.231Z,93.7
2022-09-26T02:45:00.373Z,93.7
2022-09-26T02:46:00.562Z,93.7
2022-09-26T02:47:00.678Z,93.7
2022-09-26T02:48:00.820Z,93.7
2022-09-26T02:49:00.960Z,93.7
2022-09-26T02:50:01.125Z,93.7
2022-09-26T02:51:01.266Z,93.7
2022-09-26T02:52:00.404Z,93.7
2022-09-26T02:53:00.547Z,93.7
2022-09-26T02:54:00.697Z,93.7
2022-09-26T02:55:00.848Z,93.8
2022-09-26T02:56:01.022Z,93.8
2022-09-26T02:57:01.146Z,93.8
2022-09-26T02:58:00.288Z,93.8
2022-09-26T02:59:00.437Z,93.9
2022-09-26T03:00:00.579Z,93.9
2022-09-26T03:01:00.935Z,93.9
2022-09-26T03:02:00.878Z,93.9
2022-09-26T03:03:01.021Z,93.9
2022-09-26T03:04:01.165Z,94
2022-09-26T03:05:00.403Z,94
2022-09-26T03:06:00.480Z,94
2022-09-26T03:07:00.633Z,94
2022-09-26T03:08:00.787Z,94
2022-09-26T03:09:00.912Z,94
2022-09-26T03:10:01.048Z,94
2022-09-26T03:11:01.208Z,94
2022-09-26T03:12:00.359Z,94
2022-09-26T03:13:00.500Z,94
2022-09-26T03:14:00.636Z,94
2022-09-26T03:15:00.797Z,94
2022-09-26T03:16:00.959Z,94.1
2022-09-26T03:17:01.138Z,94.1
2022-09-26T03:18:01.240Z,94.1
2022-09-26T03:19:00.387Z,94.1
2022-09-26T03:20:00.535Z,94.1
2022-09-26T03:21:00.688Z,94.1
2022-09-26T03:22:00.864Z,94.1
2022-09-26T03:23:00.991Z,94.1
2022-09-26T03:24:01.138Z,94.2
2022-09-26T03:25:00.277Z,94.1
2022-09-26T03:26:00.429Z,94.1
2022-09-26T03:27:00.622Z,94.1
2022-09-26T03:28:00.730Z,94.1
2022-09-26T03:29:00.870Z,94.1
2022-09-26T03:30:01.013Z,94.1
2022-09-26T03:31:01.169Z,94.1
2022-09-26T03:32:00.411Z,94.1
2022-09-26T03:33:00.472Z,94.1
2022-09-26T03:34:00.612Z,94.1
2022-09-26T03:35:00.757Z,94.1
2022-09-26T03:36:00.938Z,94.1
2022-09-26T03:37:01.064Z,94.1
2022-09-26T03:38:01.216Z,94.2
2022-09-26T03:39:00.366Z,94.1
2022-09-26T03:40:00.505Z,94.2
2022-09-26T03:41:00.789Z,94.2
2022-09-26T03:42:00.819Z,94.2
2022-09-26T03:43:00.975Z,94.2
2022-09-26T03:44:01.116Z,94.2
2022-09-26T03:45:00.268Z,94.2
2022-09-26T03:46:00.527Z,94.3
2022-09-26T03:47:00.580Z,94.3
2022-09-26T03:48:00.737Z,94.2
2022-09-26T03:49:00.882Z,94.2
2022-09-26T03:50:01.034Z,94.2
2022-09-26T03:51:01.203Z,94.2
2022-09-26T03:52:00.330Z,94.3
2022-09-26T03:53:00.471Z,94.3
2022-09-26T03:54:00.637Z,94.3
2022-09-26T03:55:00.783Z,94.3
2022-09-26T03:56:00.944Z,94.3
2022-09-26T03:57:01.081Z,94.3
2022-09-26T03:58:01.240Z,94.3
2022-09-26T03:59:00.373Z,94.3
2022-09-26T04:00:00.525Z,94.3
2022-09-26T04:01:00.791Z,94.3
2022-09-26T04:02:00.922Z,94.3
2022-09-26T04:03:00.968Z,94.3
2022-09-26T04:04:01.122Z,94.3
2022-09-26T04:05:00.258Z,94.3
2022-09-26T04:06:00.403Z,94.3
2022-09-26T04:07:00.575Z,94.3
2022-09-26T04:08:00.722Z,94.3
2022-09-26T04:09:00.854Z,94.3
2022-09-26T04:10:01.006Z,94.3
2022-09-26T04:11:01.150Z,94.3
2022-09-26T04:12:00.296Z,94.3
2022-09-26T04:13:00.485Z,94.3
2022-09-26T04:14:00.608Z,94.3
2022-09-26T04:15:00.736Z,94.3
2022-09-26T04:16:00.924Z,94.3
2022-09-26T04:17:01.040Z,94.3
2022-09-26T04:18:01.192Z,94.3
2022-09-26T04:19:00.310Z,94.3
2022-09-26T04:20:00.462Z,94.3
2022-09-26T04:21:00.602Z,94.3
2022-09-26T04:22:00.781Z,94.3
2022-09-26T04:23:00.892Z,94.4
2022-09-26T04:24:01.048Z,94.3
2022-09-26T04:25:01.181Z,94.3
2022-09-26T04:26:00.361Z,94.3
2022-09-26T04:27:00.483Z,94.4
2022-09-26T04:28:00.635Z,94.4
2022-09-26T04:29:00.789Z,94.3
2022-09-26T04:30:00.928Z,94.3
2022-09-26T04:31:01.099Z,94.4
2022-09-26T04:32:01.348Z,94.3
2022-09-26T04:33:00.358Z,94.3
2022-09-26T04:34:00.518Z,94.3
2022-09-26T04:35:00.665Z,94.3
2022-09-26T04:36:00.840Z,94.4
2022-09-26T04:37:00.956Z,94.4
2022-09-26T04:38:01.118Z,94.4
2022-09-26T04:39:00.253Z,94.3
2022-09-26T04:40:00.405Z,94.4
2022-09-26T04:41:00.649Z,94.4
2022-09-26T04:42:00.698Z,94.4
2022-09-26T04:43:00.844Z,94.4
2022-09-26T04:44:00.995Z,94.4
2022-09-26T04:45:01.146Z,94.4
2022-09-26T04:46:00.380Z,94.4
2022-09-26T04:47:00.487Z,94.4
2022-09-26T04:48:00.610Z,94.4
2022-09-26T04:49:00.788Z,94.4
2022-09-26T04:50:00.922Z,94.4
2022-09-26T04:51:01.056Z,94.4
2022-09-26T04:52:01.226Z,94.4
2022-09-26T04:53:00.348Z,94.4
2022-09-26T04:54:00.488Z,94.4
2022-09-26T04:55:00.630Z,94.4
2022-09-26T04:56:00.794Z,94.4
2022-09-26T04:57:00.967Z,94.4
2022-09-26T04:58:01.076Z,94.4
2022-09-26T04:59:01.224Z,94.4
2022-09-26T05:00:00.369Z,94.4
2022-09-26T05:01:00.545Z,94.4
2022-09-26T05:02:00.828Z,94.4
2022-09-26T05:03:00.821Z,94.4
2022-09-26T05:04:00.982Z,94.4
2022-09-26T05:05:01.120Z,94.4
2022-09-26T05:06:00.319Z,94.4
2022-09-26T05:07:00.426Z,94.4
2022-09-26T05:08:00.583Z,94.4
2022-09-26T05:09:00.719Z,94.4
2022-09-26T05:10:00.869Z,94.4
2022-09-26T05:11:01.029Z,94.4
2022-09-26T05:12:01.152Z,94.4
2022-09-26T05:13:00.288Z,94.4
2022-09-26T05:14:00.445Z,94.4
2022-09-26T05:15:00.601Z,94.4
2022-09-26T05:16:00.868Z,94.4
2022-09-26T05:17:00.891Z,94.3
2022-09-26T05:18:01.041Z,94.3
2022-09-26T05:19:01.188Z,94.3
2022-09-26T05:20:00.328Z,94.3
2022-09-26T05:21:00.510Z,94.3
2022-09-26T05:22:00.622Z,94.3
2022-09-26T05:23:00.769Z,94.3
2022-09-26T05:24:00.910Z,94.3
2022-09-26T05:25:01.056Z,94.3
2022-09-26T05:26:01.242Z,94.3
2022-09-26T05:27:00.362Z,94.3
2022-09-26T05:28:00.509Z,94.3
2022-09-26T05:29:05.333Z,94.3
2022-09-26T05:30:00.805Z,94.3
2022-09-26T05:31:00.966Z,94.3
2022-09-26T05:32:01.197Z,94.3
2022-09-26T05:33:01.243Z,94.3
2022-09-26T05:34:00.392Z,94.3
2022-09-26T05:35:00.547Z,94.3
2022-09-26T05:36:00.701Z,94.3
2022-09-26T05:37:00.835Z,94.2
2022-09-26T05:38:01.000Z,94.2
2022-09-26T05:39:01.138Z,94.1
2022-09-26T05:40:00.287Z,94.2
2022-09-26T05:41:00.531Z,94.2
2022-09-26T05:42:00.579Z,94.2
2022-09-26T05:43:00.720Z,94.2
2022-09-26T05:44:00.864Z,94.2
2022-09-26T05:45:01.035Z,94.1
2022-09-26T05:46:01.189Z,94.1
2022-09-26T05:47:00.444Z,94.1
2022-09-26T05:48:00.484Z,94
2022-09-26T05:49:00.619Z,94.1
2022-09-26T05:50:00.763Z,94
2022-09-26T05:51:00.914Z,94
2022-09-26T05:52:01.082Z,94
2022-09-26T05:53:01.213Z,93.9
2022-09-26T05:54:00.361Z,93.9
2022-09-26T05:55:00.510Z,94
2022-09-26T05:56:00.658Z,94
2022-09-26T05:57:00.825Z,94
2022-09-26T05:58:00.966Z,93.9
2022-09-26T05:59:01.113Z,93.9
2022-09-26T06:00:00.273Z,93.9
2022-09-26T06:01:00.432Z,93.9
2022-09-26T06:02:00.655Z,93.9
2022-09-26T06:03:00.702Z,93.9
2022-09-26T06:04:00.840Z,93.8
2022-09-26T06:05:00.965Z,93.8
2022-09-26T06:06:01.100Z,93.8
2022-09-26T06:07:01.251Z,93.8
2022-09-26T06:08:00.404Z,93.8
2022-09-26T06:09:00.571Z,93.9
2022-09-26T06:10:00.711Z,93.9
2022-09-26T06:11:00.840Z,93.9
2022-09-26T06:12:01.008Z,93.9
2022-09-26T06:13:01.137Z,93.9
2022-09-26T06:14:00.325Z,93.9
2022-09-26T06:15:00.442Z,93.8
2022-09-26T06:16:00.654Z,93.8
2022-09-26T06:17:00.731Z,93.8
2022-09-26T06:18:00.879Z,93.8
2022-09-26T06:19:01.042Z,93.9
2022-09-26T06:20:01.182Z,93.9
2022-09-26T06:21:00.323Z,93.8
2022-09-26T06:22:00.471Z,93.8
2022-09-26T06:23:00.625Z,93.8
2022-09-26T06:24:00.798Z,93.8
2022-09-26T06:25:00.931Z,93.8
2022-09-26T06:26:01.084Z,93.8
2022-09-26T06:27:01.229Z,93.7
2022-09-26T06:28:00.533Z,93.7
2022-09-26T06:29:00.817Z,93.7
2022-09-26T06:30:00.659Z,93.7
2022-09-26T06:31:00.812Z,93.7
2022-09-26T06:32:01.055Z,93.7
2022-09-26T06:33:01.100Z,93.8
2022-09-26T06:34:01.262Z,93.7
2022-09-26T06:35:00.386Z,93.6
2022-09-26T06:36:00.534Z,93.7
2022-09-26T06:37:00.686Z,93.7
2022-09-26T06:38:00.839Z,93.7
2022-09-26T06:39:01.014Z,93.7
2022-09-26T06:40:01.130Z,93.7
2022-09-26T06:41:00.366Z,93.7
2022-09-26T06:42:00.418Z,93.7
2022-09-26T06:43:00.564Z,93.7
2022-09-26T06:44:00.724Z,93.7
2022-09-26T06:45:00.853Z,93.7
2022-09-26T06:46:01.023Z,93.7
2022-09-26T06:47:01.245Z,93.7
2022-09-26T06:48:00.299Z,93.7
2022-09-26T06:49:00.441Z,93.7
2022-09-26T06:50:00.575Z,93.7
2022-09-26T06:51:00.745Z,93.7
2022-09-26T06:52:00.890Z,93.7
2022-09-26T06:53:06.732Z,93.8
2022-09-26T06:54:01.198Z,93.8
2022-09-26T06:55:00.354Z,93.8
2022-09-26T06:56:00.498Z,93.8
2022-09-26T06:57:00.647Z,93.7
2022-09-26T06:58:00.787Z,93.8
2022-09-26T06:59:00.932Z,93.9
2022-09-26T07:00:01.085Z,93.9
2022-09-26T07:01:01.363Z,93.8
2022-09-26T07:02:00.491Z,93.8
2022-09-26T07:03:00.541Z,93.7
2022-09-26T07:04:00.689Z,93.7
2022-09-26T07:05:00.832Z,93.6
2022-09-26T07:06:01.009Z,93.6
2022-09-26T07:07:01.137Z,93.6
2022-09-26T07:08:00.285Z,93.7
2022-09-26T07:09:04.107Z,93.6
2022-09-26T07:10:00.582Z,93.6
2022-09-26T07:11:21.183Z,93.5
2022-09-26T07:12:15.240Z,93.4
2022-09-26T07:13:01.045Z,93.4
2022-09-26T07:14:01.195Z,93.5
2022-09-26T07:15:00.355Z,93.5
2022-09-26T07:16:00.537Z,93.4
2022-09-26T07:17:00.640Z,93.4
2022-09-26T07:18:00.800Z,93.3
2022-09-26T07:19:00.947Z,93.2
2022-09-26T07:20:01.084Z,93.1
2022-09-26T07:21:01.239Z,92.9
2022-09-26T07:22:00.372Z,92.8
2022-09-26T07:23:00.519Z,92.7
2022-09-26T07:24:00.660Z,92.7
2022-09-26T07:25:00.820Z,92.6
2022-09-26T07:26:00.979Z,92.5
2022-09-26T07:27:01.164Z,92.5
2022-09-26T07:28:00.274Z,92.3
2022-09-26T07:29:00.424Z,92
2022-09-26T07:30:00.565Z,92
2022-09-26T07:31:00.754Z,91.8
2022-09-26T07:32:00.929Z,91.6
2022-09-26T07:33:01.009Z,91.6
2022-09-26T07:34:01.166Z,91.6
2022-09-26T07:35:00.311Z,91.5
2022-09-26T07:36:04.555Z,91.4
2022-09-26T07:37:00.613Z,91.3
2022-09-26T07:38:00.732Z,91.3
2022-09-26T07:39:00.883Z,91.3
2022-09-26T07:40:01.896Z,91.2
2022-09-26T07:41:01.351Z,91
2022-09-26T07:42:00.355Z,90.7
2022-09-26T07:43:18.431Z,90.7
2022-09-26T07:45:17.027Z,90.8
2022-09-26T07:45:28.756Z,90.8
2022-09-26T07:46:00.911Z,90.8
2022-09-26T07:47:01.209Z,90.8
2022-09-26T07:48:01.206Z,90.7
2022-09-26T07:49:00.353Z,90.8
2022-09-26T07:50:00.505Z,90.9
2022-09-26T07:51:03.502Z,90.6
2022-09-26T07:52:00.826Z,90
2022-09-26T07:53:00.968Z,89.5
2022-09-26T07:54:01.107Z,89.5
2022-09-26T07:56:00.361Z,89.6
2022-09-26T07:57:01.548Z,89.7
2022-09-26T07:58:00.652Z,89.7
2022-09-26T07:59:00.797Z,89.8
2022-09-26T08:00:00.944Z,89.6
2022-09-26T08:01:01.081Z,89.2
2022-09-26T08:02:01.328Z,89
2022-09-26T08:03:00.473Z,88.8
2022-09-26T08:04:00.528Z,88.7
2022-09-26T08:05:01.344Z,88.9
2022-09-26T08:06:00.849Z,89
2022-09-26T08:07:00.989Z,89.1
2022-09-26T08:08:01.131Z,88.9
2022-09-26T08:09:00.300Z,89
2022-09-26T08:10:00.435Z,88.8
2022-09-26T08:11:03.912Z,87.5
2022-09-26T08:12:00.728Z,87.4
2022-09-26T08:13:00.880Z,87.2
2022-09-26T08:14:01.012Z,87
2022-09-26T08:15:01.175Z,86.9
2022-09-26T08:16:00.393Z,86.6
2022-09-26T08:17:00.452Z,86.4
2022-09-26T08:18:00.607Z,86.8
2022-09-26T08:19:00.748Z,87.3
2022-09-26T08:20:00.899Z,87
2022-09-26T08:21:01.069Z,86.8
2022-09-26T08:22:01.199Z,86.6
2022-09-26T08:23:00.350Z,86.7
2022-09-26T08:24:00.480Z,86.5
2022-09-26T08:25:00.629Z,85.8
2022-09-26T08:26:00.791Z,86.2
2022-09-26T08:27:00.935Z,86.3
2022-09-26T08:28:01.077Z,85.6
2022-09-26T08:29:01.226Z,84.9
2022-09-26T08:30:00.369Z,84.8
2022-09-26T08:31:00.686Z,85.4
2022-09-26T08:32:00.661Z,85.8
2022-09-26T08:33:00.810Z,86.1
2022-09-26T08:34:00.964Z,84.4
2022-09-26T08:35:01.112Z,83.9
2022-09-26T08:36:00.273Z,85
2022-09-26T08:37:00.428Z,85
2022-09-26T08:38:00.554Z,83.5
2022-09-26T08:39:00.705Z,82.7
2022-09-26T08:40:00.992Z,83.8
2022-09-26T08:41:01.099Z,82.9
2022-09-26T08:42:01.155Z,84.1
2022-09-26T08:43:00.318Z,84.6
2022-09-26T08:44:00.456Z,84.9
2022-09-26T08:45:00.608Z,84.8
2022-09-26T08:46:00.951Z,83.2
2022-09-26T08:47:00.955Z,82.6
2022-09-26T08:48:01.043Z,83.3
2022-09-26T08:49:01.194Z,83.1
2022-09-26T08:50:00.335Z,84.1
2022-09-26T08:51:00.507Z,84.7
2022-09-26T08:52:00.625Z,84.5
2022-09-26T08:53:00.773Z,83.3
2022-09-26T08:54:00.920Z,83.4
2022-09-26T08:55:01.075Z,84.9
2022-09-26T08:56:01.236Z,84.9
2022-09-26T08:57:00.358Z,83.6
2022-09-26T08:58:00.509Z,83.5
2022-09-26T08:59:00.661Z,83.2
2022-09-26T09:00:00.807Z,83.4
2022-09-26T09:01:00.983Z,83.6
2022-09-26T09:02:01.275Z,83.6
2022-09-26T09:03:01.320Z,83.9
2022-09-26T09:04:00.387Z,84.1
2022-09-26T09:05:00.533Z,84.2
2022-09-26T09:06:00.696Z,83.1
2022-09-26T09:07:00.823Z,82.5
2022-09-26T09:08:00.975Z,83.1
2022-09-26T09:09:01.118Z,83
2022-09-26T09:10:00.266Z,83
2022-09-26T09:11:00.420Z,81.7
2022-09-26T09:12:00.558Z,82
2022-09-26T09:13:00.712Z,81.6
2022-09-26T09:14:00.833Z,82
2022-09-26T09:16:01.314Z,79.5
2022-09-26T09:17:00.283Z,79.8
2022-09-26T09:18:00.435Z,79.8
2022-09-26T09:19:00.583Z,80.7
2022-09-26T09:20:00.739Z,79.1
2022-09-26T09:21:00.909Z,80.3
2022-09-26T09:22:01.029Z,80.8
2022-09-26T09:23:01.165Z,80.9
2022-09-26T09:24:00.321Z,81.6
2022-09-26T09:25:00.469Z,80.9
2022-09-26T09:28:07.757Z,80
2022-09-26T09:29:01.050Z,79.5
2022-09-26T09:30:01.192Z,81
2022-09-26T09:31:00.490Z,82.3
2022-09-26T09:32:00.484Z,80.9
2022-09-26T09:33:00.633Z,79.6
2022-09-26T09:34:00.780Z,78.1
2022-09-26T09:35:00.933Z,79.5
2022-09-26T09:36:01.098Z,79.7
2022-09-26T09:37:01.255Z,78.6
2022-09-26T09:38:00.385Z,80.2
2022-09-26T09:39:00.537Z,80.7
2022-09-26T09:40:00.686Z,80.3
2022-09-26T09:41:00.886Z,81
2022-09-26T09:42:01.005Z,79
2022-09-26T09:43:01.121Z,81
2022-09-26T09:44:00.264Z,79.6
2022-09-26T09:45:00.423Z,79.1
2022-09-26T09:46:00.789Z,81.7
2022-09-26T09:47:00.804Z,80.9
2022-09-26T09:48:00.868Z,80.7
2022-09-26T09:49:01.013Z,80.2
2022-09-26T09:50:01.173Z,81.3
2022-09-26T09:51:00.307Z,82
2022-09-26T09:52:00.490Z,82
2022-09-26T09:53:00.621Z,82.6
2022-09-26T09:54:00.757Z,81.5
2022-09-26T09:55:00.927Z,81
2022-09-26T09:56:01.081Z,79.4
2022-09-26T09:57:01.257Z,79.2
2022-09-26T09:58:00.374Z,79.6
2022-09-26T09:59:00.507Z,81
2022-09-26T10:00:02.162Z,81.4
2022-09-26T10:01:00.836Z,81.5
2022-09-26T10:02:01.019Z,81.6
2022-09-26T10:03:01.330Z,80.5
2022-09-26T10:04:00.272Z,80.7
2022-09-26T10:05:00.423Z,80.1
2022-09-26T10:06:00.569Z,80.9
2022-09-26T10:07:00.731Z,81
2022-09-26T10:08:00.898Z,80.3
2022-09-26T10:09:01.002Z,80.7
2022-09-26T10:10:01.148Z,80.8
2022-09-26T10:11:00.295Z,81
2022-09-26T10:12:00.446Z,80.1
2022-09-26T10:13:00.608Z,78.6
2022-09-26T10:14:00.730Z,77.5
2022-09-26T10:15:00.888Z,80.2
2022-09-26T10:16:01.146Z,79.9
2022-09-26T10:17:01.171Z,76.9
2022-09-26T10:18:22.848Z,79.9
2022-09-26T10:19:03.374Z,80.2
2022-09-26T10:20:00.606Z,80.3
2022-09-26T10:21:00.753Z,80.6
2022-09-26T10:22:00.891Z,80.2
2022-09-26T10:23:01.095Z,79.6
2022-09-26T10:24:01.199Z,80.2
2022-09-26T10:25:00.346Z,80
2022-09-26T10:26:00.487Z,78.7
2022-09-26T10:27:00.632Z,79.3
2022-09-26T10:28:00.797Z,79.7
2022-09-26T10:29:00.925Z,79.6
2022-09-26T10:30:01.064Z,79.7
2022-09-26T10:31:01.248Z,77.9
2022-09-26T10:32:00.369Z,77.3
2022-09-26T10:33:00.523Z,77.8
2022-09-26T10:34:00.642Z,78.8
2022-09-26T10:35:00.798Z,79.7
2022-09-26T10:36:00.959Z,80.7
2022-09-26T10:37:01.093Z,79.7
2022-09-26T10:38:01.260Z,80.8
2022-09-26T10:39:00.395Z,79.8
2022-09-26T10:40:00.552Z,80.2
2022-09-26T10:41:00.761Z,77.4
2022-09-26T10:42:00.849Z,79.1
2022-09-26T10:43:01.012Z,78.5
2022-09-26T10:44:01.165Z,77.5
2022-09-26T10:45:00.294Z,75.9
2022-09-26T10:46:00.497Z,78
2022-09-26T10:47:00.639Z,76.3
2022-09-26T10:48:00.746Z,78.1
2022-09-26T10:49:00.909Z,78.4
2022-09-26T10:50:01.064Z,77.8
2022-09-26T10:51:01.189Z,76.6
2022-09-26T10:52:01.468Z,76.9
2022-09-26T10:53:00.486Z,77
2022-09-26T10:54:00.649Z,77.7
2022-09-26T10:55:00.825Z,78.9
2022-09-26T10:56:00.957Z,79.9
2022-09-26T10:57:01.086Z,78
2022-09-26T10:58:01.240Z,78.4
2022-09-26T10:59:00.381Z,78.1
2022-09-26T11:00:00.557Z,78.5
2022-09-26T11:01:00.672Z,78.2
2022-09-26T11:02:00.897Z,79
2022-09-26T11:03:00.961Z,77.1
2022-09-26T11:04:01.181Z,78.4
2022-09-26T11:05:01.287Z,79.2
2022-09-26T11:06:00.402Z,77.6
2022-09-26T11:07:00.539Z,79.3
2022-09-26T11:08:00.689Z,79.1
2022-09-26T11:09:00.856Z,77
2022-09-26T11:10:01.028Z,77.2
2022-09-26T11:11:01.143Z,78.7
2022-09-26T11:12:00.301Z,76.9
2022-09-26T11:13:00.454Z,77.2
2022-09-26T11:14:00.582Z,78.6
2022-09-26T11:15:00.766Z,78.3
2022-09-26T11:16:00.958Z,79.2
2022-09-26T11:17:01.021Z,78.8
2022-09-26T11:18:01.166Z,78.9
2022-09-26T11:19:00.343Z,78.2
2022-09-26T11:20:00.507Z,79.4
2022-09-26T11:21:00.620Z,76.1
2022-09-26T11:22:05.820Z,78
2022-09-26T11:23:00.934Z,77
2022-09-26T11:24:01.114Z,77.6
2022-09-26T11:25:01.220Z,76.9
2022-09-26T11:26:00.365Z,77.8
2022-09-26T11:27:00.511Z,76.6
2022-09-26T11:28:00.659Z,74.5
2022-09-26T11:29:00.837Z,75.1
2022-09-26T11:30:00.955Z,74.1
2022-09-26T11:31:01.159Z,74.5
2022-09-26T11:32:00.547Z,76.2
2022-09-26T11:33:00.401Z,74.6
2022-09-26T11:34:00.591Z,74.7
2022-09-26T11:35:00.693Z,74.3
2022-09-26T11:36:00.844Z,76.5
2022-09-26T11:37:00.981Z,75.7
2022-09-26T11:38:01.133Z,74.7
2022-09-26T11:39:00.292Z,76.2
2022-09-26T11:40:00.414Z,75.5
2022-09-26T11:41:00.675Z,75.9
2022-09-26T11:42:00.729Z,77
2022-09-26T11:43:00.856Z,77
2022-09-26T11:44:01.029Z,73.7
2022-09-26T11:45:01.197Z,74.1
2022-09-26T11:46:00.371Z,75.1
2022-09-26T11:47:00.453Z,75.9
2022-09-26T11:48:00.605Z,75.1
2022-09-26T11:49:00.747Z,72.4
2022-09-26T11:50:00.926Z,72.6
2022-09-26T11:51:01.051Z,73.9
2022-09-26T11:52:01.194Z,74.5
2022-09-26T11:53:00.352Z,76.5
2022-09-26T11:54:00.488Z,73.4
2022-09-26T11:55:00.666Z,75
2022-09-26T11:56:00.784Z,73.4
2022-09-26T11:57:00.934Z,73.2
2022-09-26T11:58:03.380Z,72.1
2022-09-26T11:59:01.232Z,71.8
2022-09-26T12:00:00.407Z,73.4
2022-09-26T12:01:00.530Z,74.1
2022-09-26T12:02:00.688Z,73.8
2022-09-26T12:03:00.995Z,73.4
2022-09-26T12:04:01.193Z,71.5
2022-09-26T12:05:01.157Z,71.3
2022-09-26T12:06:00.280Z,71.9
2022-09-26T12:07:00.429Z,72.8
2022-09-26T12:08:00.576Z,73.6
2022-09-26T12:09:00.739Z,73.5
2022-09-26T12:10:00.895Z,74.5
2022-09-26T12:11:01.051Z,74.9
2022-09-26T12:12:01.176Z,74.3
2022-09-26T12:13:00.310Z,73.9
2022-09-26T12:14:00.459Z,74.2
2022-09-26T12:15:00.626Z,71.9
2022-09-26T12:16:00.900Z,71.1
2022-09-26T12:17:00.910Z,72.2
2022-09-26T12:18:01.075Z,71.9
2022-09-26T12:19:01.216Z,72.9
2022-09-26T12:20:00.369Z,74.3
2022-09-26T12:21:00.522Z,73.5
2022-09-26T12:22:00.648Z,73.2
2022-09-26T12:23:00.823Z,73.4
2022-09-26T12:24:00.966Z,73.9
2022-09-26T12:25:01.132Z,75.1
2022-09-26T12:26:01.242Z,75.3
2022-09-26T12:27:00.387Z,72.5
2022-09-26T12:28:00.559Z,73.8
2022-09-26T12:29:00.675Z,70.9
2022-09-26T12:30:00.851Z,72.1
2022-09-26T12:31:01.075Z,74.3
2022-09-26T12:32:01.115Z,74
2022-09-26T12:33:00.259Z,72.6
2022-09-26T12:34:00.407Z,73.2
2022-09-26T12:35:00.562Z,73.4
2022-09-26T12:36:00.743Z,71.7
2022-09-26T12:37:00.903Z,73.6
2022-09-26T12:38:01.014Z,74.5
2022-09-26T12:39:01.152Z,74.3
2022-09-26T12:40:00.302Z,72.6
2022-09-26T12:41:00.538Z,73.9
2022-09-26T12:42:00.625Z,74.1
2022-09-26T12:43:00.748Z,72.3
2022-09-26T12:44:00.888Z,73
2022-09-26T12:45:01.033Z,71.8
2022-09-26T12:46:01.232Z,72.1
2022-09-26T12:47:00.401Z,72.9
2022-09-26T12:48:00.503Z,73.6
2022-09-26T12:49:00.613Z,72.4
2022-09-26T12:50:00.758Z,73.7
2022-09-26T12:51:00.914Z,73.5
2022-09-26T12:52:01.062Z,71.6
2022-09-26T12:53:01.246Z,74.2
2022-09-26T12:54:00.356Z,74
2022-09-26T12:55:00.508Z,72.5
2022-09-26T12:56:00.652Z,71.5
2022-09-26T12:57:00.794Z,73.6
2022-09-26T12:58:00.972Z,74.7
2022-09-26T12:59:01.119Z,73.2
2022-09-26T13:00:01.239Z,73.6
2022-09-26T13:01:00.393Z,73.2
2022-09-26T13:02:00.622Z,75.4
2022-09-26T13:03:00.807Z,74.9
2022-09-26T13:04:00.862Z,73.8
2022-09-26T13:05:00.980Z,73.2
2022-09-26T13:06:03.944Z,73.4
2022-09-26T13:07:18.495Z,72.2
2022-09-26T13:08:00.417Z,73.5
2022-09-26T13:09:00.594Z,73.8
2022-09-26T13:10:00.706Z,71.6
2022-09-26T13:11:00.858Z,73.3
2022-09-26T13:12:01.008Z,73.7
2022-09-26T13:13:01.148Z,73.1
2022-09-26T13:14:00.308Z,73.6
2022-09-26T13:15:00.437Z,73.6
2022-09-26T13:16:00.682Z,71.8
2022-09-26T13:17:00.732Z,71.2
2022-09-26T13:18:00.905Z,73.4
2022-09-26T13:19:01.022Z,72.3
2022-09-26T13:20:01.160Z,74
2022-09-26T13:21:00.310Z,73
2022-09-26T13:22:00.452Z,73.9
2022-09-26T13:23:00.628Z,75
2022-09-26T13:24:00.751Z,75.8
2022-09-26T13:25:00.894Z,74.9
2022-09-26T13:26:01.029Z,75.3
2022-09-26T13:27:01.189Z,73.9